Bramanville, New York
Current Conditions -  °F | °C
As of 5:15 AM on Sunday 25 Jan 2015 (Local Time) from KNY0 Reporting Station
Overcast Overcast  
Wind Chill: 18°   Ceiling: 5000
Heat Index: 31°   Visibility: 7mi
Dew Point: 19°   Wind: 23mph
Humidity: 62%   Direction: 280°W
Pressure: 29.46"   Gusts: 35mph
Location:  42.7023°N, 74.392°W
Report Text: KNY0 251015Z AUTO 28020G30KT 7SM SCT022 OVC050 M01/M07 A2946 RMK AO2 T10061071
Loading
Personal Weather Stations






























Interactive Weather Map New forecast layout! Learn more

10-Day Weather Forecast

Advertisements
Track Severe Weather on mobile